Time;durP1;ratioP1;P1;durP2;ratioP2;P2;SDS_P1;SDS_P2;PMS_P1;PMS_P2;Temp;Humidity;BMP_temperature;BMP_pressure;BME280_temperature;BME280_humidity;BME280_pressure;Samples;Min_cycle;Max_cycle;Signal;HPM_P1;HPM_P2
2021/01/11 00:01:24;;;;;;;79.35;15.95;;;-2.40;78.30;;;;;;5058990;28;20028;-70
2021/01/11 00:03:50;;;;;;;90.15;15.70;;;-2.50;78.60;;;;;;5057376;28;20108;-70
2021/01/11 00:06:15;;;;;;;46.97;17.05;;;-2.60;78.90;;;;;;5059239;28;20120;-70
2021/01/11 00:08:41;;;;;;;43.15;16.40;;;-2.70;79.50;;;;;;5055819;28;20103;-69
2021/01/11 00:11:06;;;;;;;61.88;17.15;;;-2.60;79.70;;;;;;5058481;28;20075;-70
2021/01/11 00:13:32;;;;;;;51.22;18.27;;;-2.50;79.80;;;;;;5059284;28;20021;-72
2021/01/11 00:15:58;;;;;;;65.55;15.43;;;-2.40;79.80;;;;;;5057025;28;20116;-69
2021/01/11 00:18:23;;;;;;;50.33;17.80;;;-2.30;79.40;;;;;;5057862;28;20024;-70
2021/01/11 00:20:49;;;;;;;61.97;16.73;;;-2.30;79.40;;;;;;5056893;28;20029;-69
2021/01/11 00:23:14;;;;;;;53.75;17.27;;;-2.30;79.50;;;;;;5057678;28;20027;-72
2021/01/11 00:25:40;;;;;;;68.13;17.45;;;-2.10;79.50;;;;;;5057883;28;20047;-71
2021/01/11 00:28:05;;;;;;;61.70;14.15;;;-2.10;79.30;;;;;;5056649;28;20020;-70
2021/01/11 00:30:31;;;;;;;63.03;13.65;;;-2.00;79.10;;;;;;5057908;28;20024;-72
2021/01/11 00:32:57;;;;;;;69.90;15.98;;;-2.00;79.00;;;;;;5060181;28;20029;-71
2021/01/11 00:35:22;;;;;;;53.88;16.00;;;-2.00;79.10;;;;;;5057020;28;20033;-71
2021/01/11 00:37:48;;;;;;;56.22;13.88;;;-2.00;79.20;;;;;;5059403;28;20443;-70
2021/01/11 00:40:13;;;;;;;44.45;14.15;;;-1.90;79.20;;;;;;5059065;28;20048;-71
2021/01/11 00:42:39;;;;;;;64.90;14.35;;;-1.90;79.20;;;;;;5058976;28;20074;-71
2021/01/11 00:45:07;;;;;;;52.90;14.98;;;-1.80;79.30;;;;;;5058339;28;20029;-71
2021/01/11 00:47:40;;;;;;;66.13;15.63;;;-1.80;79.10;;;;;;5059321;28;20090;-71
2021/01/11 00:50:07;;;;;;;55.65;14.73;;;-1.70;79.20;;;;;;5058475;28;20017;-71
2021/01/11 00:52:36;;;;;;;66.07;16.60;;;-1.70;78.90;;;;;;5057098;28;20036;-71
2021/01/11 00:55:05;;;;;;;49.78;14.80;;;-1.70;79.20;;;;;;5056933;28;20048;-71
2021/01/11 00:57:30;;;;;;;41.40;14.35;;;-1.70;79.20;;;;;;5056703;28;20028;-71
2021/01/11 00:59:56;;;;;;;45.05;13.13;;;-1.80;78.90;;;;;;5057496;28;20040;-71
2021/01/11 01:02:21;;;;;;;54.70;12.48;;;-1.80;79.10;;;;;;5057104;28;20021;-71
2021/01/11 01:04:47;;;;;;;58.28;12.20;;;-1.80;79.10;;;;;;5056165;28;20031;-71
2021/01/11 01:07:12;;;;;;;62.65;12.27;;;-1.90;79.00;;;;;;5056136;28;20031;-69
2021/01/11 01:09:38;;;;;;;56.60;13.18;;;-2.00;79.10;;;;;;5058962;28;20511;-71
2021/01/11 01:12:04;;;;;;;41.25;13.98;;;-2.00;79.20;;;;;;5057598;28;20016;-69
2021/01/11 01:14:29;;;;;;;57.33;15.43;;;-2.00;79.60;;;;;;5057323;28;20594;-71
2021/01/11 01:16:55;;;;;;;53.97;13.95;;;-1.90;79.80;;;;;;5056722;28;20041;-71
2021/01/11 01:19:20;;;;;;;40.55;14.48;;;-1.80;79.70;;;;;;5057377;28;20118;-71
2021/01/11 01:21:46;;;;;;;65.15;14.35;;;-1.70;79.70;;;;;;5057160;28;20119;-71
2021/01/11 01:24:11;;;;;;;102.43;15.35;;;-1.70;79.10;;;;;;5054307;28;20087;-71
2021/01/11 01:26:37;;;;;;;77.60;14.52;;;-1.80;79.10;;;;;;5055194;28;20079;-71
2021/01/11 01:29:02;;;;;;;72.65;13.60;;;-1.80;79.40;;;;;;5059582;28;20039;-71
2021/01/11 01:31:28;;;;;;;77.13;14.65;;;-1.80;79.40;;;;;;5057973;28;20029;-71
2021/01/11 01:33:53;;;;;;;124.78;15.93;;;-1.80;79.60;;;;;;5057027;28;20088;-71
2021/01/11 01:36:19;;;;;;;91.10;13.27;;;-1.90;79.60;;;;;;5058484;28;20048;-71
2021/01/11 01:38:45;;;;;;;128.77;14.85;;;-2.00;79.50;;;;;;5056216;28;20037;-71
2021/01/11 01:41:11;;;;;;;107.88;14.25;;;-2.00;79.50;;;;;;5056842;28;20035;-71
2021/01/11 01:43:36;;;;;;;105.18;14.20;;;-2.10;79.50;;;;;;5054866;28;20033;-71
2021/01/11 01:46:04;;;;;;;89.05;14.85;;;-2.20;79.50;;;;;;5057679;28;20078;-71
2021/01/11 01:48:30;;;;;;;93.78;14.68;;;-2.30;79.80;;;;;;5061642;28;20025;-71
2021/01/11 01:50:55;;;;;;;122.85;17.02;;;-2.30;80.20;;;;;;5062324;28;20036;-71
2021/01/11 01:53:21;;;;;;;110.55;16.05;;;-2.30;80.30;;;;;;5060363;28;20070;-71
2021/01/11 01:55:47;;;;;;;166.68;17.63;;;-2.30;80.00;;;;;;5058736;28;20493;-71
2021/01/11 01:58:16;;;;;;;82.22;14.68;;;-2.30;80.10;;;;;;5060418;28;20102;-71
2021/01/11 02:00:42;;;;;;;109.05;16.15;;;-2.30;79.60;;;;;;5061727;28;20408;-71
2021/01/11 02:03:07;;;;;;;149.02;17.60;;;-2.40;79.60;;;;;;5059913;28;20077;-71
2021/01/11 02:05:33;;;;;;;165.75;17.88;;;-2.40;79.90;;;;;;5059744;28;20036;-71
2021/01/11 02:08:28;;;;;;;132.75;17.45;;;-2.50;79.90;;;;;;5058939;28;20382;-71
2021/01/11 02:11:16;;;;;;;85.57;17.23;;;-2.50;80.20;;;;;;5060026;28;20516;-71
2021/01/11 02:14:13;;;;;;;298.40;19.48;;;-2.50;80.30;;;;;;5060625;28;20060;-71
2021/01/11 02:16:55;;;;;;;499.08;23.95;;;-2.50;80.20;;;;;;5059423;28;20032;-71
2021/01/11 02:19:41;;;;;;;184.10;17.63;;;-2.50;80.20;;;;;;5061577;28;20072;-72
2021/01/11 02:22:18;;;;;;;159.07;17.13;;;-2.50;80.20;;;;;;5060145;28;20109;-72
2021/01/11 02:25:05;;;;;;;123.60;18.45;;;-2.50;80.30;;;;;;5059022;28;20120;-72
2021/01/11 02:27:40;;;;;;;157.30;18.40;;;-2.50;80.40;;;;;;5061343;28;20032;-72
2021/01/11 02:30:15;;;;;;;103.07;17.20;;;-2.40;80.50;;;;;;5060808;28;20025;-72
2021/01/11 02:32:56;;;;;;;103.60;15.75;;;-2.30;80.40;;;;;;5061545;28;20706;-72
2021/01/11 02:35:23;;;;;;;83.10;16.50;;;-2.40;80.50;;;;;;5060460;28;20119;-72
2021/01/11 02:37:49;;;;;;;210.05;15.95;;;-2.40;80.50;;;;;;5060723;28;20032;-72
2021/01/11 02:40:15;;;;;;;154.73;15.27;;;-2.50;80.50;;;;;;5061001;28;20484;-72
2021/01/11 02:42:41;;;;;;;167.25;16.33;;;-2.60;80.70;;;;;;5062408;28;20044;-72
2021/01/11 02:45:09;;;;;;;261.00;16.35;;;-2.70;80.90;;;;;;5058826;28;20025;-72
2021/01/11 02:47:46;;;;;;;125.68;15.57;;;-2.70;81.10;;;;;;5062438;28;20039;-72
2021/01/11 02:50:18;;;;;;;157.98;15.48;;;-2.80;80.90;;;;;;5062838;28;20047;-72
2021/01/11 02:53:06;;;;;;;158.40;17.58;;;-2.80;81.20;;;;;;5065295;28;20452;-73
2021/01/11 02:55:42;;;;;;;460.60;21.95;;;-2.80;81.40;;;;;;5061179;28;20524;-72
2021/01/11 02:58:14;;;;;;;77.03;16.40;;;-2.70;81.10;;;;;;5059941;28;20033;-72
2021/01/11 03:00:43;;;;;;;186.57;18.95;;;-2.70;81.10;;;;;;5062676;28;21018;-72
2021/01/11 03:03:11;;;;;;;199.10;16.65;;;-2.70;81.30;;;;;;5061519;28;20366;-72
2021/01/11 03:05:37;;;;;;;162.63;14.73;;;-2.60;81.10;;;;;;5060138;28;20370;-72
2021/01/11 03:08:03;;;;;;;89.43;13.95;;;-2.60;80.70;;;;;;5060177;28;20025;-72
2021/01/11 03:10:29;;;;;;;141.07;14.27;;;-2.60;81.00;;;;;;5060981;28;20104;-72
2021/01/11 03:12:54;;;;;;;115.57;14.15;;;-2.70;81.00;;;;;;5057389;28;20523;-72
2021/01/11 03:15:20;;;;;;;132.00;14.63;;;-2.70;81.10;;;;;;5058958;28;20082;-72
2021/01/11 03:17:46;;;;;;;86.25;14.40;;;-2.70;81.30;;;;;;5060278;28;20082;-72
2021/01/11 03:20:13;;;;;;;127.63;14.48;;;-2.80;81.40;;;;;;5059131;28;20206;-72
2021/01/11 03:22:38;;;;;;;119.65;15.23;;;-2.80;81.50;;;;;;5059170;28;20056;-72
2021/01/11 03:25:05;;;;;;;58.42;15.98;;;-2.80;81.80;;;;;;5059208;28;20028;-73
2021/01/11 03:27:31;;;;;;;74.65;14.45;;;-2.70;81.90;;;;;;5059810;28;20037;-72
2021/01/11 03:29:57;;;;;;;93.28;17.58;;;-2.50;81.90;;;;;;5061104;28;20093;-72
2021/01/11 03:32:22;;;;;;;98.65;16.77;;;-2.40;81.80;;;;;;5059703;28;20342;-73
2021/01/11 03:34:48;;;;;;;91.78;14.50;;;-2.20;81.50;;;;;;5058667;28;20415;-73
2021/01/11 03:37:14;;;;;;;47.33;16.67;;;-2.20;81.10;;;;;;5057967;28;20050;-72
2021/01/11 03:39:39;;;;;;;64.35;15.63;;;-2.10;81.10;;;;;;5059391;28;20036;-73
2021/01/11 03:42:05;;;;;;;75.53;15.52;;;-2.10;81.10;;;;;;5058346;28;20039;-72
2021/01/11 03:44:31;;;;;;;57.00;15.68;;;-2.00;81.10;;;;;;5055401;28;20123;-73
2021/01/11 03:46:56;;;;;;;40.22;15.35;;;-1.90;81.00;;;;;;5059286;28;20025;-73
2021/01/11 03:49:22;;;;;;;84.60;15.40;;;-1.90;80.90;;;;;;5060741;28;20083;-72
2021/01/11 03:51:47;;;;;;;258.40;18.17;;;-1.90;80.90;;;;;;5054802;28;20032;-72
2021/01/11 03:54:13;;;;;;;130.95;15.70;;;-1.80;80.40;;;;;;5056137;28;20024;-72
2021/01/11 03:56:39;;;;;;;101.80;13.98;;;-1.90;80.00;;;;;;5060363;28;20043;-73
2021/01/11 03:59:04;;;;;;;60.63;13.38;;;-1.90;80.10;;;;;;5058289;28;20036;-72
2021/01/11 04:01:34;;;;;;;41.03;13.27;;;-2.20;79.60;;;;;;5056183;28;20056;-73
2021/01/11 04:04:00;;;;;;;37.85;13.68;;;-2.30;80.20;;;;;;5059275;28;20067;-73
2021/01/11 04:06:25;;;;;;;76.43;13.63;;;-2.40;80.90;;;;;;5058244;28;20048;-73
2021/01/11 04:08:51;;;;;;;47.35;14.05;;;-2.40;80.80;;;;;;5058257;28;20025;-73
2021/01/11 04:11:22;;;;;;;69.13;13.25;;;-2.50;80.90;;;;;;5058796;28;20072;-73
2021/01/11 04:13:48;;;;;;;36.58;12.20;;;-2.60;81.30;;;;;;5058888;28;20028;-72
2021/01/11 04:16:15;;;;;;;89.57;13.85;;;-2.70;81.00;;;;;;5059358;28;20489;-73
2021/01/11 04:18:41;;;;;;;56.78;12.98;;;-2.80;81.40;;;;;;5060490;28;20032;-73
2021/01/11 04:21:11;;;;;;;55.55;14.57;;;-2.80;81.50;;;;;;5057701;28;20025;-72
2021/01/11 04:23:36;;;;;;;44.25;14.07;;;-2.80;81.60;;;;;;5059904;28;20035;-73
2021/01/11 04:26:02;;;;;;;51.80;14.65;;;-2.90;81.40;;;;;;5058084;28;20030;-73
2021/01/11 04:28:28;;;;;;;48.35;15.48;;;-2.90;81.90;;;;;;5055461;28;20025;-73
2021/01/11 04:30:53;;;;;;;53.42;13.18;;;-2.70;82.10;;;;;;5056752;28;20021;-72
2021/01/11 04:33:19;;;;;;;58.58;14.80;;;-2.70;81.80;;;;;;5059577;28;20036;-73
2021/01/11 04:35:44;;;;;;;42.63;14.65;;;-2.70;81.50;;;;;;5058408;28;20040;-73
2021/01/11 04:38:10;;;;;;;106.68;15.95;;;-2.60;81.80;;;;;;5058002;28;20039;-72
2021/01/11 04:40:35;;;;;;;40.17;14.80;;;-2.50;81.80;;;;;;5058265;28;20113;-73
2021/01/11 04:43:18;;;;;;;65.78;14.63;;;-2.40;81.60;;;;;;5056647;28;20116;-73
2021/01/11 04:45:45;;;;;;;87.32;13.25;;;-2.40;81.30;;;;;;5058041;28;20045;-73
2021/01/11 04:48:14;;;;;;;64.57;13.77;;;-2.50;81.00;;;;;;5057332;28;20029;-73
2021/01/11 04:50:40;;;;;;;49.65;14.55;;;-2.60;81.00;;;;;;5057520;28;20073;-73
2021/01/11 04:53:10;;;;;;;44.08;15.30;;;-2.70;81.40;;;;;;5055426;28;20495;-73
2021/01/11 04:55:37;;;;;;;59.53;14.38;;;-2.70;81.80;;;;;;5056756;28;20138;-73
2021/01/11 04:58:10;;;;;;;44.63;12.98;;;-2.70;81.70;;;;;;5055096;28;20601;-73
2021/01/11 05:00:38;;;;;;;58.65;12.95;;;-2.80;81.40;;;;;;5060035;28;20127;-73
2021/01/11 05:03:06;;;;;;;157.95;17.30;;;-2.80;81.30;;;;;;5057676;28;20365;-73
2021/01/11 05:05:37;;;;;;;72.10;14.77;;;-2.90;81.70;;;;;;5053653;28;20025;-73
2021/01/11 05:08:04;;;;;;;46.83;12.30;;;-2.90;81.70;;;;;;5058449;28;20025;-73
2021/01/11 05:10:38;;;;;;;52.10;12.70;;;-2.90;81.80;;;;;;5055853;28;20441;-72
2021/01/11 05:13:08;;;;;;;74.80;15.60;;;-2.90;81.70;;;;;;5054682;28;20025;-73
2021/01/11 05:15:35;;;;;;;64.63;14.15;;;-2.90;81.90;;;;;;5053767;28;20087;-73
2021/01/11 05:18:02;;;;;;;94.70;14.65;;;-2.80;81.90;;;;;;5060401;28;20040;-73
2021/01/11 05:20:31;;;;;;;58.67;14.82;;;-2.70;82.00;;;;;;5054887;28;20028;-72
2021/01/11 05:23:08;;;;;;;42.13;13.68;;;-2.70;82.10;;;;;;5058604;28;20025;-72
2021/01/11 05:25:37;;;;;;;62.03;13.60;;;-2.60;81.80;;;;;;5055765;28;20048;-72
2021/01/11 05:28:08;;;;;;;69.57;14.20;;;-2.50;81.80;;;;;;5059342;28;20047;-72
2021/01/11 05:30:44;;;;;;;62.85;14.40;;;-2.50;81.80;;;;;;5058323;28;20040;-72
2021/01/11 05:33:19;;;;;;;42.60;15.27;;;-2.50;81.50;;;;;;5057826;28;20048;-72
2021/01/11 05:35:47;;;;;;;75.65;15.50;;;-2.40;81.70;;;;;;5055338;28;20039;-72
2021/01/11 05:38:15;;;;;;;51.15;15.55;;;-2.30;81.70;;;;;;5058462;28;20028;-73
2021/01/11 05:40:41;;;;;;;44.53;13.77;;;-2.10;81.60;;;;;;5056228;28;20029;-73
2021/01/11 05:43:07;;;;;;;66.78;12.50;;;-2.10;81.50;;;;;;5057511;28;20036;-71
2021/01/11 05:45:35;;;;;;;45.45;13.18;;;-2.10;81.20;;;;;;5052823;28;20111;-73
2021/01/11 05:48:05;;;;;;;47.00;13.65;;;-2.10;81.30;;;;;;5055616;28;20108;-73
2021/01/11 05:50:32;;;;;;;56.78;13.68;;;-2.00;81.50;;;;;;5058607;28;20021;-73
2021/01/11 05:52:58;;;;;;;57.50;14.05;;;-2.10;81.20;;;;;;5058648;28;20097;-73
2021/01/11 05:55:33;;;;;;;57.38;13.48;;;-2.10;81.10;;;;;;5051593;22;20077;-65
2021/01/11 05:58:05;;;;;;;58.53;13.45;;;-2.20;81.40;;;;;;5031503;28;20055;-65
2021/01/11 06:00:36;;;;;;;46.17;13.25;;;-2.20;81.50;;;;;;5045937;28;20404;-66
2021/01/11 06:03:04;;;;;;;39.28;11.30;;;-2.30;81.50;;;;;;5048494;28;20036;-65
2021/01/11 06:05:30;;;;;;;57.47;12.80;;;-2.30;81.30;;;;;;5049372;28;20126;-66
2021/01/11 06:07:57;;;;;;;33.13;11.02;;;-2.40;81.40;;;;;;5049610;28;20036;-65
2021/01/11 06:10:24;;;;;;;62.45;11.10;;;-2.50;81.40;;;;;;5047880;28;20029;-66
2021/01/11 06:12:50;;;;;;;53.78;12.00;;;-2.60;81.20;;;;;;5049659;28;20025;-64
2021/01/11 06:15:27;;;;;;;79.65;12.02;;;-2.70;81.40;;;;;;5048498;28;20163;-65
2021/01/11 06:17:55;;;;;;;68.15;12.20;;;-2.80;81.90;;;;;;5049862;28;20051;-65
2021/01/11 06:20:23;;;;;;;44.17;11.48;;;-2.80;82.10;;;;;;5048998;28;20448;-64
2021/01/11 06:22:51;;;;;;;53.92;12.27;;;-2.80;82.20;;;;;;5049481;28;20032;-64
2021/01/11 06:25:20;;;;;;;43.50;11.23;;;-2.80;82.20;;;;;;5046310;28;20049;-64
2021/01/11 06:28:02;;;;;;;62.60;11.55;;;-2.80;82.10;;;;;;5048173;28;20056;-64
2021/01/11 06:30:34;;;;;;;;;;;-2.80;82.20;;;;;;5050225;28;20029;-67
2021/01/11 06:33:07;;;;;;;63.70;10.32;;;-2.80;82.10;;;;;;5034940;28;19995;-67
2021/01/11 06:35:39;;;;;;;67.38;10.82;;;-2.90;81.60;;;;;;5050653;28;20037;-65
2021/01/11 06:38:10;;;;;;;62.58;10.95;;;-3.00;82.00;;;;;;5053523;28;20109;-64
2021/01/11 06:40:36;;;;;;;39.80;10.77;;;-3.00;82.20;;;;;;5052679;28;20059;-65
2021/01/11 06:43:03;;;;;;;44.13;10.23;;;-3.00;82.10;;;;;;5052986;28;20021;-65
2021/01/11 06:45:42;;;;;;;59.08;10.90;;;-3.00;81.90;;;;;;5052725;28;20481;-65
2021/01/11 06:48:11;;;;;;;47.45;10.77;;;-3.10;82.20;;;;;;5053584;28;20058;-64
2021/01/11 06:50:38;;;;;;;50.03;11.57;;;-3.10;82.20;;;;;;5052983;28;20071;-66
2021/01/11 06:53:04;;;;;;;51.00;11.35;;;-3.20;82.40;;;;;;5053295;28;20389;-66
2021/01/11 06:55:31;;;;;;;50.10;10.55;;;-3.20;82.30;;;;;;5050992;28;20039;-65
2021/01/11 06:57:58;;;;;;;52.20;10.38;;;-3.20;82.30;;;;;;5052615;28;20032;-65
2021/01/11 07:00:36;;;;;;;41.47;11.88;;;-3.20;82.40;;;;;;5051757;28;20111;-66
2021/01/11 07:03:04;;;;;;;55.17;12.50;;;-3.20;82.50;;;;;;5052156;28;20023;-65
2021/01/11 07:05:33;;;;;;;36.72;12.25;;;-3.10;82.80;;;;;;5050719;28;20032;-66
2021/01/11 07:08:10;;;;;;;29.77;11.13;;;-3.00;82.80;;;;;;5053293;28;20025;-66
2021/01/11 07:10:39;;;;;;;26.38;10.00;;;-2.90;82.60;;;;;;5053105;28;20075;-66
2021/01/11 07:13:19;;;;;;;26.08;10.02;;;-2.90;81.80;;;;;;5052945;28;20017;-66
2021/01/11 07:15:52;;;;;;;24.70;8.98;;;-3.00;81.70;;;;;;5051686;28;20078;-66
2021/01/11 07:18:36;;;;;;;23.15;9.65;;;-3.10;81.80;;;;;;5052963;28;20051;-66
2021/01/11 07:21:13;;;;;;;19.33;8.27;;;-3.20;81.80;;;;;;5032524;28;20417;-66
2021/01/11 07:23:39;;;;;;;20.60;9.10;;;-3.30;81.60;;;;;;5048795;28;20499;-66
2021/01/11 07:26:24;;;;;;;21.02;9.20;;;-3.40;81.60;;;;;;5049249;28;20032;-66
2021/01/11 07:29:03;;;;;;;23.08;8.80;;;-3.40;82.00;;;;;;5051015;28;20311;-65
2021/01/11 07:31:32;;;;;;;23.13;9.32;;;-3.50;81.80;;;;;;5052137;28;20024;-66
2021/01/11 07:34:11;;;;;;;32.45;10.02;;;-3.50;81.70;;;;;;5052386;28;20040;-66
2021/01/11 07:36:42;;;;;;;29.35;9.68;;;-3.60;81.70;;;;;;5052740;28;20036;-66
2021/01/11 07:39:15;;;;;;;24.35;9.80;;;-3.60;81.80;;;;;;5051839;28;20032;-66
2021/01/11 07:41:49;;;;;;;25.02;8.95;;;-3.60;82.40;;;;;;5053208;28;20025;-66
2021/01/11 07:44:23;;;;;;;21.45;9.60;;;-3.70;82.00;;;;;;5049772;28;20040;-66
2021/01/11 07:46:54;;;;;;;30.20;11.05;;;-3.60;82.50;;;;;;5051103;28;20021;-65
2021/01/11 07:49:20;;;;;;;77.45;13.15;;;-3.60;82.50;;;;;;5050477;28;20061;-66
2021/01/11 07:51:48;;;;;;;101.15;10.40;;;-3.50;82.50;;;;;;5051814;28;20055;-67
2021/01/11 07:54:17;;;;;;;96.80;10.38;;;-3.40;82.20;;;;;;5049183;28;20021;-66
2021/01/11 07:56:44;;;;;;;62.10;11.07;;;-3.30;81.90;;;;;;5051544;28;20080;-66
2021/01/11 07:59:11;;;;;;;76.97;11.57;;;-3.30;81.90;;;;;;5052452;28;20032;-66
2021/01/11 08:01:39;;;;;;;241.80;14.38;;;-3.30;81.90;;;;;;5051626;28;20044;-66
2021/01/11 08:04:05;;;;;;;56.58;10.93;;;-3.20;81.70;;;;;;5050614;28;20032;-65
2021/01/11 08:06:52;;;;;;;42.78;12.55;;;-3.20;81.40;;;;;;5051888;28;20013;-68
2021/01/11 08:09:26;;;;;;;60.53;10.63;;;-3.20;81.50;;;;;;5051528;28;20021;-68
2021/01/11 08:12:11;;;;;;;75.72;11.77;;;-3.20;81.30;;;;;;5051768;28;20028;-65
2021/01/11 08:14:37;;;;;;;93.70;11.48;;;-3.20;81.30;;;;;;5049720;28;20377;-66
2021/01/11 08:17:05;;;;;;;47.67;8.10;;;-3.20;81.00;;;;;;5051817;28;20051;-66
2021/01/11 08:19:32;;;;;;;51.22;10.90;;;-3.20;81.30;;;;;;5051327;28;20124;-66
2021/01/11 08:21:59;;;;;;;48.33;11.30;;;-3.30;80.90;;;;;;5051154;28;20033;-65
2021/01/11 08:24:25;;;;;;;200.63;16.45;;;-3.50;80.90;;;;;;5049865;28;20036;-65
2021/01/11 08:27:01;;;;;;;126.85;15.18;;;-3.60;81.20;;;;;;5051121;28;20090;-65
2021/01/11 08:29:30;;;;;;;122.65;16.30;;;-3.60;81.30;;;;;;5050871;28;20082;-66
2021/01/11 08:31:58;;;;;;;62.08;13.35;;;-3.50;81.60;;;;;;5051012;28;20017;-68
2021/01/11 08:34:24;;;;;;;57.13;12.77;;;-3.50;81.30;;;;;;5034911;28;20018;-65
2021/01/11 08:36:49;;;;;;;62.05;11.43;;;-3.60;80.90;;;;;;5031787;28;20501;-66
2021/01/11 08:39:16;;;;;;;90.45;13.32;;;-3.60;80.90;;;;;;5050691;28;20028;-68
2021/01/11 08:41:54;;;;;;;105.32;16.02;;;-3.80;81.00;;;;;;5051218;28;20477;-67
2021/01/11 08:44:34;;;;;;;99.70;13.63;;;-3.90;81.40;;;;;;5030587;28;20115;-67
2021/01/11 08:47:04;;;;;;;171.18;21.40;;;-3.90;81.70;;;;;;5031582;28;20386;-64
2021/01/11 08:49:30;;;;;;;70.60;16.33;;;-3.90;81.70;;;;;;5050741;28;20104;-65
2021/01/11 08:52:10;;;;;;;97.43;16.02;;;-3.80;81.60;;;;;;5049562;28;20029;-66
2021/01/11 08:54:37;;;;;;;117.15;18.27;;;-3.80;81.50;;;;;;5034322;28;20143;-65
2021/01/11 08:57:10;;;;;;;46.85;18.45;;;-3.70;81.70;;;;;;5049806;28;20025;-65
2021/01/11 08:59:36;;;;;;;151.80;20.45;;;-3.60;81.80;;;;;;5050736;28;20036;-68
2021/01/11 09:02:01;;;;;;;68.68;19.42;;;-3.60;81.90;;;;;;5049442;28;20178;-68
2021/01/11 09:04:35;;;;;;;46.85;16.30;;;-3.50;81.80;;;;;;5047560;28;20107;-67
2021/01/11 09:07:03;;;;;;;66.57;19.13;;;-3.30;81.70;;;;;;5050370;28;20555;-65
2021/01/11 09:09:30;;;;;;;60.83;18.75;;;-3.30;81.30;;;;;;5049279;28;20512;-65
2021/01/11 09:12:08;;;;;;;135.68;20.67;;;-3.30;81.70;;;;;;5050004;28;20037;-65
2021/01/11 09:14:50;;;;;;;58.33;19.00;;;-3.20;81.30;;;;;;5042911;28;20028;-66
2021/01/11 09:17:25;;;;;;;43.88;16.70;;;-3.20;80.70;;;;;;5050309;28;20037;-65
2021/01/11 09:19:50;;;;;;;89.05;20.40;;;-3.10;80.90;;;;;;5049949;28;20545;-65
2021/01/11 09:22:16;;;;;;;50.35;17.75;;;-3.10;80.80;;;;;;5049193;28;20177;-66
2021/01/11 09:24:42;;;;;;;79.28;20.35;;;-3.10;81.00;;;;;;5048719;28;20032;-65
2021/01/11 09:27:08;;;;;;;52.78;18.70;;;-3.00;81.00;;;;;;5048573;28;20021;-65
2021/01/11 09:29:35;;;;;;;89.80;15.35;;;-2.90;81.00;;;;;;5050234;28;20025;-65
2021/01/11 09:32:01;;;;;;;49.20;17.30;;;-2.90;80.80;;;;;;5050135;28;20029;-66
2021/01/11 09:34:26;;;;;;;151.73;21.05;;;-3.00;80.90;;;;;;5035606;28;20049;-65
2021/01/11 09:36:52;;;;;;;62.05;20.80;;;-2.90;81.00;;;;;;5050131;28;20025;-65
2021/01/11 09:39:17;;;;;;;56.17;19.70;;;-2.90;80.90;;;;;;5049178;28;20082;-66
2021/01/11 09:41:47;;;;;;;46.47;19.25;;;-3.00;80.60;;;;;;5050265;28;20104;-66
2021/01/11 09:44:13;;;;;;;77.97;20.70;;;-2.90;80.70;;;;;;5049344;28;20594;-66
2021/01/11 09:46:40;;;;;;;71.03;20.40;;;-2.90;80.60;;;;;;5048567;28;20079;-65
2021/01/11 09:49:06;;;;;;;59.63;19.95;;;-2.90;80.80;;;;;;5049739;28;20682;-66
2021/01/11 09:51:31;;;;;;;58.72;18.13;;;-2.90;80.70;;;;;;5050305;28;20052;-66
2021/01/11 09:53:57;;;;;;;62.00;19.05;;;-2.90;81.20;;;;;;5049857;28;20377;-66
2021/01/11 09:56:22;;;;;;;91.05;18.52;;;-2.90;81.20;;;;;;5048994;28;20037;-66
2021/01/11 09:58:51;;;;;;;45.72;18.67;;;-2.80;81.10;;;;;;5049841;28;20029;-66
2021/01/11 10:01:17;;;;;;;58.42;20.98;;;-2.80;81.20;;;;;;5047349;28;20481;-66
2021/01/11 10:03:42;;;;;;;45.67;17.95;;;-2.70;81.40;;;;;;5049797;28;20039;-66
2021/01/11 10:06:08;;;;;;;43.33;16.80;;;-2.70;80.90;;;;;;5049010;28;20033;-67
2021/01/11 10:08:35;;;;;;;45.80;18.25;;;-2.70;80.80;;;;;;5046385;28;20029;-67
2021/01/11 10:11:04;;;;;;;45.65;19.98;;;-2.70;80.80;;;;;;5054126;28;20100;-66
2021/01/11 10:13:30;;;;;;;42.60;17.90;;;-2.60;80.90;;;;;;5053710;28;20496;-66
2021/01/11 10:15:55;;;;;;;42.55;18.95;;;-2.60;81.40;;;;;;5053536;28;20112;-66
2021/01/11 10:18:21;;;;;;;47.40;19.27;;;-2.40;81.30;;;;;;5053859;28;20465;-66
2021/01/11 10:20:46;;;;;;;50.33;20.25;;;-2.30;81.50;;;;;;5052026;28;20342;-66
2021/01/11 10:23:12;;;;;;;48.42;20.05;;;-2.10;81.50;;;;;;5053803;28;20037;-67
2021/01/11 10:25:37;;;;;;;41.42;18.92;;;-1.90;81.20;;;;;;5051899;28;20130;-66
2021/01/11 10:28:03;;;;;;;64.45;26.23;;;-1.80;80.90;;;;;;5053020;28;20021;-66
2021/01/11 10:30:29;;;;;;;45.92;19.92;;;-1.70;80.30;;;;;;5053524;28;20017;-66
2021/01/11 10:32:54;;;;;;;38.28;17.40;;;-1.70;80.00;;;;;;5053410;28;20021;-67
2021/01/11 10:35:20;;;;;;;45.60;18.83;;;-1.60;80.20;;;;;;5053297;28;20029;-66
2021/01/11 10:37:45;;;;;;;50.40;21.73;;;-1.60;80.30;;;;;;5053392;28;20043;-66
2021/01/11 10:40:11;;;;;;;47.33;21.63;;;-1.60;80.50;;;;;;5053784;28;20021;-67
2021/01/11 10:42:37;;;;;;;45.03;20.05;;;-1.50;80.70;;;;;;5053086;28;20057;-66
2021/01/11 10:45:04;;;;;;;43.13;19.08;;;-1.40;80.40;;;;;;5053102;28;20025;-67
2021/01/11 10:47:29;;;;;;;43.22;19.05;;;-1.30;80.30;;;;;;5053063;28;20037;-66
2021/01/11 10:49:55;;;;;;;38.17;17.30;;;-1.30;80.40;;;;;;5053376;28;20092;-67
2021/01/11 10:52:20;;;;;;;36.28;16.80;;;-1.30;80.10;;;;;;5052948;28;20477;-66
2021/01/11 10:54:46;;;;;;;37.03;16.75;;;-1.30;80.50;;;;;;5051485;28;20067;-67
2021/01/11 10:57:12;;;;;;;38.70;17.65;;;-1.30;80.10;;;;;;5052558;28;20033;-66
2021/01/11 10:59:38;;;;;;;39.05;17.13;;;-1.40;80.30;;;;;;5053070;28;20033;-66
2021/01/11 11:02:05;;;;;;;45.15;21.00;;;-1.40;80.30;;;;;;5047877;28;20152;-67
2021/01/11 11:04:30;;;;;;;43.40;20.35;;;-1.40;80.50;;;;;;5032850;28;20484;-66
2021/01/11 11:06:57;;;;;;;40.30;18.00;;;-1.40;80.20;;;;;;5048636;28;20104;-67
2021/01/11 11:09:22;;;;;;;40.88;18.85;;;-1.40;80.40;;;;;;5053137;28;20074;-66
2021/01/11 11:11:52;;;;;;;45.65;18.13;;;-1.30;80.80;;;;;;5050118;28;20033;-66
2021/01/11 11:14:18;;;;;;;46.55;19.00;;;-1.20;80.70;;;;;;5047293;28;20021;-66
2021/01/11 11:16:43;;;;;;;44.92;18.65;;;-1.20;80.40;;;;;;5049598;28;20041;-66
2021/01/11 11:19:09;;;;;;;37.75;16.25;;;-1.20;80.50;;;;;;5051390;28;20143;-66
2021/01/11 11:21:34;;;;;;;38.28;15.63;;;-1.20;80.60;;;;;;5051939;28;20428;-66
2021/01/11 11:24:00;;;;;;;34.17;15.10;;;-1.30;80.70;;;;;;5052059;28;20070;-66
2021/01/11 11:26:25;;;;;;;34.40;15.75;;;-1.30;80.70;;;;;;5052284;28;20359;-66
2021/01/11 11:28:51;;;;;;;38.95;15.57;;;-1.30;80.50;;;;;;5052011;28;20134;-66
2021/01/11 11:31:19;;;;;;;40.67;15.65;;;-1.30;80.50;;;;;;5051766;28;20036;-67
2021/01/11 11:33:44;;;;;;;41.40;15.90;;;-1.40;80.70;;;;;;5048795;28;20131;-66
2021/01/11 11:36:10;;;;;;;38.53;15.90;;;-1.40;80.70;;;;;;5050836;28;20093;-66
2021/01/11 11:38:35;;;;;;;33.47;14.55;;;-1.50;80.90;;;;;;5048437;28;20045;-66
2021/01/11 11:41:01;;;;;;;41.60;16.75;;;-1.40;81.10;;;;;;5054000;28;20052;-66
2021/01/11 11:43:26;;;;;;;36.40;15.98;;;-1.40;81.10;;;;;;5072118;28;20506;-66
2021/01/11 11:45:52;;;;;;;38.38;15.85;;;-1.40;81.10;;;;;;5061171;28;20404;-66
2021/01/11 11:48:19;;;;;;;36.13;15.63;;;-1.30;81.00;;;;;;5050992;28;20041;-66
2021/01/11 11:50:44;;;;;;;39.97;17.33;;;-1.30;80.80;;;;;;5050591;28;20028;-66
2021/01/11 11:53:11;;;;;;;37.58;17.65;;;-1.20;80.90;;;;;;5051125;28;20025;-66
2021/01/11 11:55:38;;;;;;;37.15;15.95;;;-1.20;80.90;;;;;;5083323;22;20046;-89
2021/01/11 11:58:04;;;;;;;36.05;15.40;;;-1.10;80.80;;;;;;5066411;28;20037;-88
2021/01/11 12:00:30;;;;;;;45.03;17.20;;;-1.00;80.50;;;;;;5069590;28;20036;-89
2021/01/11 12:02:56;;;;;;;35.03;15.68;;;-1.00;80.60;;;;;;5068093;28;20450;-88
2021/01/11 12:05:21;;;;;;;31.88;15.10;;;-0.80;80.60;;;;;;5066685;28;20032;-89
2021/01/11 12:07:48;;;;;;;34.20;15.70;;;-0.70;80.10;;;;;;5067785;28;20035;-89
2021/01/11 12:10:14;;;;;;;33.40;14.60;;;-0.60;80.40;;;;;;5063057;28;20021;-89
2021/01/11 12:12:40;;;;;;;33.25;15.25;;;-0.60;80.20;;;;;;5069510;28;20063;-88
2021/01/11 12:15:07;;;;;;;30.23;13.77;;;-0.60;80.10;;;;;;5058140;28;20429;-89
2021/01/11 12:17:33;;;;;;;34.90;15.82;;;-0.60;80.20;;;;;;5070616;28;20033;-89
2021/01/11 12:19:59;;;;;;;33.95;16.10;;;-0.60;80.20;;;;;;5070110;28;20036;-89
2021/01/11 12:22:26;;;;;;;34.40;15.85;;;-0.30;80.60;;;;;;5069804;28;20040;-89
2021/01/11 12:24:52;;;;;;;32.13;15.75;;;0.00;80.40;;;;;;5061347;28;20029;-89
2021/01/11 12:27:17;;;;;;;37.25;16.60;;;0.20;79.70;;;;;;5065796;28;20036;-89
2021/01/11 12:29:43;;;;;;;34.95;16.10;;;0.40;79.80;;;;;;5064452;28;20119;-90
2021/01/11 12:32:09;;;;;;;34.42;16.92;;;0.60;79.70;;;;;;5058761;28;20122;-89